Apiliotis — SYVY — position and weather

sailwx.info

Track history (hours):
 
Tides and Currents Weather Stations Pressure Air Temp Water Temp Dewpoint Dewpoint Depression Visibility Wind Speed Wind Dir Waves Ship Positions

Apiliotis

Last reported at 2015-May-03 04:18 UTC. Time now 2015-May-03 10:49 UTC.
Position N 36°54' E 027°18'.

Length 79 m; draft 4.5 m.

Type: Ship. MMSI: 240438000.

Date/timePositionNaut miles runAvg speedWind from/ knotsBaromVisibWave heightAir tempDewpointWater temp
2015-May-03 04:18N 36°54' E 027°18'  
2015-Apr-30 21:12N 36°20' E 027°24'911.7
2015-Apr-30 20:25N 36°22' E 027°12'1011.4
2015-Apr-30 19:32N 36°24' E 027°00'1211.8
2015-Apr-30 18:33N 36°26' E 026°46'1212.3
2015-Apr-30 17:33N 36°29' E 026°31'7 2.0
2015-Apr-30 14:13N 36°31' E 026°23'710.9
2015-Apr-30 13:32N 36°30' E 026°14'1111.6
2015-Apr-30 12:33N 36°30' E 025°60'1211.6
2015-Apr-30 11:33N 36°30' E 025°46'1211.6
2015-Apr-30 10:33N 36°30' E 025°31'7 7.3
2015-Apr-30 09:33N 36°26' E 025°23'3 2.8
2015-Apr-30 08:33N 36°23' E 025°25'0 0.3
2015-Apr-30 07:32N 36°23' E 025°25'0 0.2
2015-Apr-30 06:32N 36°23' E 025°25'1 0.7
2015-Apr-30 05:34N 36°23' E 025°26'0 0.1
2015-Apr-30 04:32N 36°23' E 025°26'0 0.0
2015-Apr-30 03:31N 36°23' E 025°26'7 7.1
2015-Apr-30 02:33N 36°29' E 025°22'9 9.2
2015-Apr-30 01:33N 36°36' E 025°30'9 9.1
2015-Apr-30 00:33N 36°43' E 025°37'9 9.3
2015-Apr-29 23:33N 36°50' E 025°45'4 0.9
2015-Apr-29 19:33N 36°51' E 025°49'1212.4
2015-Apr-29 18:33N 37°03' E 025°45'1211.8
2015-Apr-29 17:33N 37°12' E 025°36'1212.3
2015-Apr-29 16:33N 37°19' E 025°23'9 8.8
2015-Apr-29 15:34N 37°28' E 025°20'0 0.1
2015-Apr-29 14:33N 37°28' E 025°20'0 0.0
2015-Apr-29 13:34N 37°28' E 025°20'8 7.7
2015-Apr-29 12:33N 37°29' E 025°10'1212.2
2015-Apr-29 11:34N 37°32' E 024°55'43 5.9
2015-Apr-29 04:11N 37°32' E 024°00'812.1
2015-Apr-29 03:34N 37°35' E 023°52'1211.7
2015-Apr-29 02:34N 37°43' E 023°41'1111.3
2015-Apr-29 01:33N 37°50' E 023°30'1212.3
2015-Apr-29 00:32N 37°53' E 023°14'7 6.9
2015-Apr-28 23:28N 37°55' E 023°05'0 0.0
2015-Apr-28 22:33N 37°55' E 023°05'0 0.0
2015-Apr-28 21:17N 37°55' E 023°05'0 0.0
2015-Apr-28 16:31N 37°55' E 023°05'0 0.0
2015-Apr-28 15:07N 37°55' E 023°05'0 0.0
2015-Apr-28 14:32N 37°55' E 023°05'0 0.0
2015-Apr-28 13:12N 37°55' E 023°05'0 0.0
2015-Apr-28 12:33N 37°55' E 023°05'0 0.0
2015-Apr-28 11:30N 37°55' E 023°05'1 0.4
2015-Apr-28 09:31N 37°54' E 023°04'1 0.5
2015-Apr-28 08:33N 37°54' E 023°04'0 0.0
2015-Apr-28 07:29N 37°54' E 023°04'0 0.0
2015-Apr-28 06:34N 37°54' E 023°04'0 0.0
2015-Apr-28 05:26N 37°54' E 023°04'0 0.0
2015-Apr-28 02:04N 37°54' E 023°04'0 0.0
2015-Apr-28 01:31N 37°54' E 023°04'0 0.0
2015-Apr-28 00:33N 37°54' E 023°04'0 0.0
2015-Apr-27 23:33N 37°54' E 023°04'0 0.0
2015-Apr-27 22:31N 37°54' E 023°04'0 0.0
2015-Apr-27 21:33N 37°54' E 023°04'0 0.0
2015-Apr-27 20:33N 37°54' E 023°04'0 0.0
2015-Apr-27 19:24N 37°54' E 023°04'0 0.0
2015-Apr-27 18:30N 37°54' E 023°04'0 0.0
2015-Apr-27 17:33N 37°54' E 023°04'0 0.0
2015-Apr-27 16:33N 37°54' E 023°04'0 0.0
2015-Apr-27 15:08N 37°54' E 023°04'0 0.0
2015-Apr-27 14:09N 37°54' E 023°04'2 3.8
2015-Apr-27 13:33N 37°54' E 023°07'1111.4
2015-Apr-27 12:34N 37°57' E 023°21'9 9.4
2015-Apr-27 11:33N 38°01' E 023°31'1 1.2
2015-Apr-27 10:33N 38°02' E 023°33'0 0.0
2015-Apr-27 09:34N 38°02' E 023°33'0 0.0
2015-Apr-27 08:34N 38°02' E 023°33'0 0.1
2015-Apr-27 07:33N 38°02' E 023°33'1 1.0
2015-Apr-27 06:34N 38°02' E 023°31'0 0.0
2015-Apr-27 05:34N 38°02' E 023°31'0 0.0
2015-Apr-27 04:33N 38°02' E 023°31'0 0.0
2015-Apr-27 03:33N 38°02' E 023°31'0 0.0
2015-Apr-27 02:33N 38°02' E 023°31'0 0.0
2015-Apr-27 01:33N 38°02' E 023°31'0 0.0
2015-Apr-27 00:33N 38°02' E 023°31'0 0.0
2015-Apr-26 23:34N 38°02' E 023°31'0 0.0
2015-Apr-26 22:34N 38°02' E 023°31'0 0.0
2015-Apr-26 21:34N 38°02' E 023°31'0 0.0
2015-Apr-26 20:34N 38°02' E 023°31'0 0.1
2015-Apr-26 19:34N 38°02' E 023°32'0 0.0
2015-Apr-26 18:33N 38°02' E 023°31'0 0.0
2015-Apr-26 17:33N 38°02' E 023°31'0 0.0
2015-Apr-26 16:34N 38°02' E 023°31'0 0.0
2015-Apr-26 15:34N 38°02' E 023°31'0 0.0
2015-Apr-26 14:34N 38°02' E 023°31'0 0.0
2015-Apr-26 13:34N 38°02' E 023°31'0 0.0
2015-Apr-26 12:34N 38°02' E 023°31'0 0.1
2015-Apr-26 11:34N 38°02' E 023°32'0 0.0
2015-Apr-26 10:33N 38°02' E 023°32'0 0.1
2015-Apr-26 09:33N 38°02' E 023°31'0 0.0
2015-Apr-26 08:34N 38°02' E 023°32'0 0.0
2015-Apr-26 07:33N 38°02' E 023°31'0 0.0
2015-Apr-26 06:33N 38°02' E 023°31'0 0.0
2015-Apr-26 05:34N 38°02' E 023°31'0 0.0
2015-Apr-26 04:33N 38°02' E 023°31'0 0.0
2015-Apr-26 03:34N 38°02' E 023°31'0 0.0
2015-Apr-26 02:33N 38°02' E 023°31'0 0.0
2015-Apr-26 01:34N 38°02' E 023°31'0 0.0
2015-Apr-26 00:33N 38°02' E 023°31'0 0.0
2015-Apr-25 23:34N 38°02' E 023°31'0 0.0
2015-Apr-25 22:34N 38°02' E 023°31'0 0.0
2015-Apr-25 21:33N 38°02' E 023°31'0 0.0
2015-Apr-25 20:33N 38°02' E 023°31'0 0.0
2015-Apr-25 19:33N 38°02' E 023°31'0 0.1
2015-Apr-25 18:34N 38°02' E 023°31'0 0.0
2015-Apr-25 17:34N 38°02' E 023°31'0 0.0
2015-Apr-25 16:34N 38°02' E 023°31'0 0.0
2015-Apr-25 15:33N 38°02' E 023°31'0 0.0
2015-Apr-25 14:33N 38°02' E 023°31'0 0.0
2015-Apr-25 13:33N 38°02' E 023°31'0 0.0
2015-Apr-25 12:33N 38°02' E 023°31'0 0.0
2015-Apr-25 11:34N 38°02' E 023°31'0 0.0
2015-Apr-25 10:33N 38°02' E 023°31'0 0.0
2015-Apr-25 09:34N 38°02' E 023°31'0 0.0
2015-Apr-25 08:33N 38°02' E 023°31'0 0.0
2015-Apr-25 07:34N 38°02' E 023°31'0 0.1
2015-Apr-25 06:33N 38°02' E 023°31'0 0.0
2015-Apr-25 05:34N 38°02' E 023°31'0 0.0
2015-Apr-25 04:33N 38°02' E 023°31'0 0.0
2015-Apr-25 03:34N 38°02' E 023°31'0 0.0
2015-Apr-25 02:34N 38°02' E 023°31'0 0.0
2015-Apr-25 01:34N 38°02' E 023°31'0 0.0
2015-Apr-25 00:34N 38°02' E 023°31'0 0.0
2015-Apr-24 23:34N 38°02' E 023°31'0 0.0
2015-Apr-24 22:34N 38°02' E 023°31'0 0.0
2015-Apr-24 21:33N 38°02' E 023°31'0 0.0
2015-Apr-24 20:34N 38°02' E 023°31'0 0.0
2015-Apr-24 19:34N 38°02' E 023°31'0 0.1
2015-Apr-24 18:34N 38°02' E 023°31'0 0.0
2015-Apr-24 17:33N 38°02' E 023°31'0 0.0
2015-Apr-24 16:33N 38°02' E 023°31'0 0.0
2015-Apr-24 15:34N 38°02' E 023°31'0 0.0
2015-Apr-24 14:34N 38°02' E 023°31'0 0.0
2015-Apr-24 13:33N 38°02' E 023°31'0 0.0
2015-Apr-24 12:33N 38°02' E 023°31'0 0.0
2015-Apr-24 11:34N 38°02' E 023°31'0 0.0
2015-Apr-24 10:34N 38°02' E 023°31'0 0.0
2015-Apr-24 09:34N 38°02' E 023°31'0 0.0
2015-Apr-24 08:33N 38°02' E 023°31'0 0.0
2015-Apr-24 07:34N 38°02' E 023°31'0 0.0
2015-Apr-24 06:34N 38°02' E 023°31'0 0.0
2015-Apr-24 05:33N 38°02' E 023°31'1 1.1
2015-Apr-24 04:33N 38°01' E 023°33'8 8.3
2015-Apr-24 03:33N 37°54' E 023°37'1110.6
2015-Apr-24 02:33N 37°44' E 023°43'10 9.6
2015-Apr-24 01:32N 37°38' E 023°53'41 9.9
2015-Apr-23 21:25N 37°32' E 024°44'910.2
2015-Apr-23 20:34N 37°32' E 024°55'1010.4
2015-Apr-23 19:34N 37°29' E 025°08'9 9.5
2015-Apr-23 18:33N 37°28' E 025°20'0 0.0
2015-Apr-23 17:34N 37°28' E 025°20'0 0.0
2015-Apr-23 16:34N 37°28' E 025°20'0 0.0
2015-Apr-23 15:33N 37°28' E 025°20'0 0.0
2015-Apr-23 14:34N 37°28' E 025°20'0 0.2
2015-Apr-23 13:33N 37°28' E 025°20'8 8.2
2015-Apr-23 12:33N 37°20' E 025°18'1110.6
2015-Apr-23 11:33N 37°09' E 025°20'1010.3
2015-Apr-23 10:33N 36°59' E 025°16'2010.2
2015-Apr-23 08:32N 36°39' E 025°15'1110.7
2015-Apr-23 07:33N 36°29' E 025°21'7 7.1
2015-Apr-23 06:33N 36°23' E 025°26'0 0.0
2015-Apr-23 05:33N 36°23' E 025°26'0 0.0
2015-Apr-23 04:32N 36°23' E 025°26'  
Track history (hours):
 
Tides and Currents Weather Stations Pressure Air Temp Water Temp Dewpoint Dewpoint Depression Visibility Wind Speed Wind Dir Waves Ship Positions

Apiliotis

Last reported at 2015-May-03 04:18 UTC. Time now 2015-May-03 10:49 UTC.
Position N 36°54' E 027°18'.

Length 79 m; draft 4.5 m.

Type: Ship. MMSI: 240438000.

Date/timePositionNaut miles runAvg speedWind from/ knotsBaromVisibWave heightAir tempDewpointWater temp
2015-May-03 04:18N 36°54' E 027°18'  
2015-Apr-30 21:12N 36°20' E 027°24'911.7
2015-Apr-30 20:25N 36°22' E 027°12'1011.4
2015-Apr-30 19:32N 36°24' E 027°00'1211.8
2015-Apr-30 18:33N 36°26' E 026°46'1212.3
2015-Apr-30 17:33N 36°29' E 026°31'7 2.0
2015-Apr-30 14:13N 36°31' E 026°23'710.9
2015-Apr-30 13:32N 36°30' E 026°14'1111.6
2015-Apr-30 12:33N 36°30' E 025°60'1211.6
2015-Apr-30 11:33N 36°30' E 025°46'1211.6
2015-Apr-30 10:33N 36°30' E 025°31'7 7.3
2015-Apr-30 09:33N 36°26' E 025°23'3 2.8
2015-Apr-30 08:33N 36°23' E 025°25'0 0.3
2015-Apr-30 07:32N 36°23' E 025°25'0 0.2
2015-Apr-30 06:32N 36°23' E 025°25'1 0.7
2015-Apr-30 05:34N 36°23' E 025°26'0 0.1
2015-Apr-30 04:32N 36°23' E 025°26'0 0.0
2015-Apr-30 03:31N 36°23' E 025°26'7 7.1
2015-Apr-30 02:33N 36°29' E 025°22'9 9.2
2015-Apr-30 01:33N 36°36' E 025°30'9 9.1
2015-Apr-30 00:33N 36°43' E 025°37'9 9.3
2015-Apr-29 23:33N 36°50' E 025°45'4 0.9
2015-Apr-29 19:33N 36°51' E 025°49'1212.4
2015-Apr-29 18:33N 37°03' E 025°45'1211.8
2015-Apr-29 17:33N 37°12' E 025°36'1212.3
2015-Apr-29 16:33N 37°19' E 025°23'9 8.8
2015-Apr-29 15:34N 37°28' E 025°20'0 0.1
2015-Apr-29 14:33N 37°28' E 025°20'0 0.0
2015-Apr-29 13:34N 37°28' E 025°20'8 7.7
2015-Apr-29 12:33N 37°29' E 025°10'1212.2
2015-Apr-29 11:34N 37°32' E 024°55'43 5.9
2015-Apr-29 04:11N 37°32' E 024°00'812.1
2015-Apr-29 03:34N 37°35' E 023°52'1211.7
2015-Apr-29 02:34N 37°43' E 023°41'1111.3
2015-Apr-29 01:33N 37°50' E 023°30'1212.3
2015-Apr-29 00:32N 37°53' E 023°14'7 6.9
2015-Apr-28 23:28N 37°55' E 023°05'0 0.0
2015-Apr-28 22:33N 37°55' E 023°05'0 0.0
2015-Apr-28 21:17N 37°55' E 023°05'0 0.0
2015-Apr-28 16:31N 37°55' E 023°05'0 0.0
2015-Apr-28 15:07N 37°55' E 023°05'0 0.0
2015-Apr-28 14:32N 37°55' E 023°05'0 0.0
2015-Apr-28 13:12N 37°55' E 023°05'0 0.0
2015-Apr-28 12:33N 37°55' E 023°05'0 0.0
2015-Apr-28 11:30N 37°55' E 023°05'1 0.4
2015-Apr-28 09:31N 37°54' E 023°04'1 0.5
2015-Apr-28 08:33N 37°54' E 023°04'0 0.0
2015-Apr-28 07:29N 37°54' E 023°04'0 0.0
2015-Apr-28 06:34N 37°54' E 023°04'0 0.0
2015-Apr-28 05:26N 37°54' E 023°04'0 0.0
2015-Apr-28 02:04N 37°54' E 023°04'0 0.0
2015-Apr-28 01:31N 37°54' E 023°04'0 0.0
2015-Apr-28 00:33N 37°54' E 023°04'0 0.0
2015-Apr-27 23:33N 37°54' E 023°04'0 0.0
2015-Apr-27 22:31N 37°54' E 023°04'0 0.0
2015-Apr-27 21:33N 37°54' E 023°04'0 0.0
2015-Apr-27 20:33N 37°54' E 023°04'0 0.0
2015-Apr-27 19:24N 37°54' E 023°04'0 0.0
2015-Apr-27 18:30N 37°54' E 023°04'0 0.0
2015-Apr-27 17:33N 37°54' E 023°04'0 0.0
2015-Apr-27 16:33N 37°54' E 023°04'0 0.0
2015-Apr-27 15:08N 37°54' E 023°04'0 0.0
2015-Apr-27 14:09N 37°54' E 023°04'2 3.8
2015-Apr-27 13:33N 37°54' E 023°07'1111.4
2015-Apr-27 12:34N 37°57' E 023°21'9 9.4
2015-Apr-27 11:33N 38°01' E 023°31'1 1.2
2015-Apr-27 10:33N 38°02' E 023°33'0 0.0
2015-Apr-27 09:34N 38°02' E 023°33'0 0.0
2015-Apr-27 08:34N 38°02' E 023°33'0 0.1
2015-Apr-27 07:33N 38°02' E 023°33'1 1.0
2015-Apr-27 06:34N 38°02' E 023°31'0 0.0
2015-Apr-27 05:34N 38°02' E 023°31'0 0.0
2015-Apr-27 04:33N 38°02' E 023°31'0 0.0
2015-Apr-27 03:33N 38°02' E 023°31'0 0.0
2015-Apr-27 02:33N 38°02' E 023°31'0 0.0
2015-Apr-27 01:33N 38°02' E 023°31'0 0.0
2015-Apr-27 00:33N 38°02' E 023°31'0 0.0
2015-Apr-26 23:34N 38°02' E 023°31'0 0.0
2015-Apr-26 22:34N 38°02' E 023°31'0 0.0
2015-Apr-26 21:34N 38°02' E 023°31'0 0.0
2015-Apr-26 20:34N 38°02' E 023°31'0 0.1
2015-Apr-26 19:34N 38°02' E 023°32'0 0.0
2015-Apr-26 18:33N 38°02' E 023°31'0 0.0
2015-Apr-26 17:33N 38°02' E 023°31'0 0.0
2015-Apr-26 16:34N 38°02' E 023°31'0 0.0
2015-Apr-26 15:34N 38°02' E 023°31'0 0.0
2015-Apr-26 14:34N 38°02' E 023°31'0 0.0
2015-Apr-26 13:34N 38°02' E 023°31'0 0.0
2015-Apr-26 12:34N 38°02' E 023°31'0 0.1
2015-Apr-26 11:34N 38°02' E 023°32'0 0.0
2015-Apr-26 10:33N 38°02' E 023°32'0 0.1
2015-Apr-26 09:33N 38°02' E 023°31'0 0.0
2015-Apr-26 08:34N 38°02' E 023°32'0 0.0
2015-Apr-26 07:33N 38°02' E 023°31'0 0.0
2015-Apr-26 06:33N 38°02' E 023°31'0 0.0
2015-Apr-26 05:34N 38°02' E 023°31'0 0.0
2015-Apr-26 04:33N 38°02' E 023°31'0 0.0
2015-Apr-26 03:34N 38°02' E 023°31'0 0.0
2015-Apr-26 02:33N 38°02' E 023°31'0 0.0
2015-Apr-26 01:34N 38°02' E 023°31'0 0.0
2015-Apr-26 00:33N 38°02' E 023°31'0 0.0
2015-Apr-25 23:34N 38°02' E 023°31'0 0.0
2015-Apr-25 22:34N 38°02' E 023°31'0 0.0
2015-Apr-25 21:33N 38°02' E 023°31'0 0.0
2015-Apr-25 20:33N 38°02' E 023°31'0 0.0
2015-Apr-25 19:33N 38°02' E 023°31'0 0.1
2015-Apr-25 18:34N 38°02' E 023°31'0 0.0
2015-Apr-25 17:34N 38°02' E 023°31'0 0.0
2015-Apr-25 16:34N 38°02' E 023°31'0 0.0
2015-Apr-25 15:33N 38°02' E 023°31'0 0.0
2015-Apr-25 14:33N 38°02' E 023°31'0 0.0
2015-Apr-25 13:33N 38°02' E 023°31'0 0.0
2015-Apr-25 12:33N 38°02' E 023°31'0 0.0
2015-Apr-25 11:34N 38°02' E 023°31'0 0.0
2015-Apr-25 10:33N 38°02' E 023°31'0 0.0
2015-Apr-25 09:34N 38°02' E 023°31'0 0.0
2015-Apr-25 08:33N 38°02' E 023°31'0 0.0
2015-Apr-25 07:34N 38°02' E 023°31'0 0.1
2015-Apr-25 06:33N 38°02' E 023°31'0 0.0
2015-Apr-25 05:34N 38°02' E 023°31'0 0.0
2015-Apr-25 04:33N 38°02' E 023°31'0 0.0
2015-Apr-25 03:34N 38°02' E 023°31'0 0.0
2015-Apr-25 02:34N 38°02' E 023°31'0 0.0
2015-Apr-25 01:34N 38°02' E 023°31'0 0.0
2015-Apr-25 00:34N 38°02' E 023°31'0 0.0
2015-Apr-24 23:34N 38°02' E 023°31'0 0.0
2015-Apr-24 22:34N 38°02' E 023°31'0 0.0
2015-Apr-24 21:33N 38°02' E 023°31'0 0.0
2015-Apr-24 20:34N 38°02' E 023°31'0 0.0
2015-Apr-24 19:34N 38°02' E 023°31'0 0.1
2015-Apr-24 18:34N 38°02' E 023°31'0 0.0
2015-Apr-24 17:33N 38°02' E 023°31'0 0.0
2015-Apr-24 16:33N 38°02' E 023°31'0 0.0
2015-Apr-24 15:34N 38°02' E 023°31'0 0.0
2015-Apr-24 14:34N 38°02' E 023°31'0 0.0
2015-Apr-24 13:33N 38°02' E 023°31'0 0.0
2015-Apr-24 12:33N 38°02' E 023°31'0 0.0
2015-Apr-24 11:34N 38°02' E 023°31'0 0.0
2015-Apr-24 10:34N 38°02' E 023°31'0 0.0
2015-Apr-24 09:34N 38°02' E 023°31'0 0.0
2015-Apr-24 08:33N 38°02' E 023°31'0 0.0
2015-Apr-24 07:34N 38°02' E 023°31'0 0.0
2015-Apr-24 06:34N 38°02' E 023°31'0 0.0
2015-Apr-24 05:33N 38°02' E 023°31'1 1.1
2015-Apr-24 04:33N 38°01' E 023°33'8 8.3
2015-Apr-24 03:33N 37°54' E 023°37'1110.6
2015-Apr-24 02:33N 37°44' E 023°43'10 9.6
2015-Apr-24 01:32N 37°38' E 023°53'41 9.9
2015-Apr-23 21:25N 37°32' E 024°44'910.2
2015-Apr-23 20:34N 37°32' E 024°55'1010.4
2015-Apr-23 19:34N 37°29' E 025°08'9 9.5
2015-Apr-23 18:33N 37°28' E 025°20'0 0.0
2015-Apr-23 17:34N 37°28' E 025°20'0 0.0
2015-Apr-23 16:34N 37°28' E 025°20'0 0.0
2015-Apr-23 15:33N 37°28' E 025°20'0 0.0
2015-Apr-23 14:34N 37°28' E 025°20'0 0.2
2015-Apr-23 13:33N 37°28' E 025°20'8 8.2
2015-Apr-23 12:33N 37°20' E 025°18'1110.6
2015-Apr-23 11:33N 37°09' E 025°20'1010.3
2015-Apr-23 10:33N 36°59' E 025°16'2010.2
2015-Apr-23 08:32N 36°39' E 025°15'1110.7
2015-Apr-23 07:33N 36°29' E 025°21'7 7.1
2015-Apr-23 06:33N 36°23' E 025°26'0 0.0
2015-Apr-23 05:33N 36°23' E 025°26'0 0.0
2015-Apr-23 04:32N 36°23' E 025°26'  

Dump ship's entire track history